Terminal Aerodrome Forecast
Issued by NWS Glasgow, MT

Current Version | Previous Version | Text Only | Print | Product List | Glossary On
Versions: 1 2 3 4 5 6 7 8 9 10 11 12 13 14
000
FTUS45 KGGW 100500
TAFGGW
TAF
KGGW 100520Z 1006/1106 11010KT P6SM FEW100
     FM100900 11008KT P6SM VCSH BKN100
     FM101500 31008KT P6SM SCT100
     FM101800 32016KT P6SM FEW110
     FM110300 VRB06KT P6SM SKC=

USA.gov is the U.S. government's official web portal to all federal, state and local government web resources and services.